Aviation Digital Data Service (ADDS)

Output produced by METARs form (1937 UTC 25 March 2017)
found at http://www.aviationweather.gov/adds/metars/
 
LHSM 251545Z 32004KT 9999 FEW045 SCT200 14/03 Q1022
TAF LHSM 251100Z 2512/2521 VRB03KT 9999 SCT035 
     BECMG 2512/2515 CAVOK
       
LHBC 251745Z 20002KT CAVOK 10/M02 Q1020
LHBP 251930Z 31004KT 280V350 CAVOK 08/M00 Q1019 NOSIG
TAF LHBP 251700Z 2518/2618 31009KT CAVOK 
     BECMG 2518/2520 26005KT 
     BECMG 2520/2523 33008KT 
     BECMG 2604/2607 03010KT 
     TEMPO 2604/2607 BKN040
       
LHDC 251645Z 26006KT CAVOK 12/M03 Q1020 NOSIG
TAF LHDC 251400Z 2515/2524 34006KT CAVOK
       
LHKE 251915Z 30006KT CAVOK 08/01 Q1019 NOSIG RMK BLU
TAF LHKE 251715Z 2518/2603 30006KT CAVOK 
     TEMPO 2600/2603 33003KT
       
LHPA 251915Z 32006KT CAVOK 07/M01 Q1020 NOSIG RMK BLU
TAF LHPA 251715Z 2518/2618 36005KT CAVOK 
     TEMPO 2518/2601 VRB04KT 
     BECMG 2523/2602 8000 NSC 
     PROB40 
     TEMPO 2601/2605 5000 BR NSC 
     BECMG 2605/2608 01010KT 
     TEMPO 2607/2610 01012G22KT 9999 SCT025 BKN080 
     BECMG 2616/2618 02005KT
       
LHPP 251645Z 30003KT CAVOK 15/02 Q1021
TAF LHPP 251400Z 2515/2524 VRB04KT CAVOK
       
LHPR 251915Z AUTO 33006KT CAVOK 07/M00 Q1020 RMK BLU
TAF LHPR 251700Z 2518/2603 32006KT CAVOK 
     BECMG 2600/2603 34012KT
       
LHSM 251545Z 32004KT 9999 FEW045 SCT200 14/03 Q1022
TAF LHSM 251100Z 2512/2521 VRB03KT 9999 SCT035 
     BECMG 2512/2515 CAVOK
       
LHSN 251915Z 29006KT 260V330 CAVOK 10/01 Q1019 NOSIG RMK BLU
TAF LHSN 251715Z 2518/2603 29005KT CAVOK 
     TEMPO 2600/2603 36003KT
       
LHUD 251915Z 28005KT CAVOK 09/01 Q1020
LHDC 251645Z 26006KT CAVOK 12/M03 Q1020 NOSIG
TAF LHDC 251400Z 2515/2524 34006KT CAVOK
       
LHBP 251930Z 31004KT 280V350 CAVOK 08/M00 Q1019 NOSIG
TAF LHBP 251700Z 2518/2618 31009KT CAVOK 
     BECMG 2518/2520 26005KT 
     BECMG 2520/2523 33008KT 
     BECMG 2604/2607 03010KT 
     TEMPO 2604/2607 BKN040
       
LHKE 251915Z 30006KT CAVOK 08/01 Q1019 NOSIG RMK BLU
TAF LHKE 251715Z 2518/2603 30006KT CAVOK 
     TEMPO 2600/2603 33003KT
       
LHPA 251915Z 32006KT CAVOK 07/M01 Q1020 NOSIG RMK BLU
TAF LHPA 251715Z 2518/2618 36005KT CAVOK 
     TEMPO 2518/2601 VRB04KT 
     BECMG 2523/2602 8000 NSC 
     PROB40 
     TEMPO 2601/2605 5000 BR NSC 
     BECMG 2605/2608 01010KT 
     TEMPO 2607/2610 01012G22KT 9999 SCT025 BKN080 
     BECMG 2616/2618 02005KT
       
LHSN 251915Z 29006KT 260V330 CAVOK 10/01 Q1019 NOSIG RMK BLU
TAF LHSN 251715Z 2518/2603 29005KT CAVOK 
     TEMPO 2600/2603 36003KT